createdAt,value
2022-08-28T00:00:08.312Z,101037.41
2022-08-28T00:02:34.878Z,100985.09
2022-08-28T00:05:01.852Z,101043.25
2022-08-28T00:07:28.457Z,101013.94
2022-08-28T00:09:55.008Z,101022.59
2022-08-28T00:12:21.771Z,101039.03
2022-08-28T00:14:48.324Z,101052.31
2022-08-28T00:17:14.814Z,101049.06
2022-08-28T00:19:41.675Z,101051.78
2022-08-28T00:22:08.347Z,101052.75
2022-08-28T00:24:35.275Z,101015.44
2022-08-28T00:27:20.512Z,101056.72
2022-08-28T00:29:47.149Z,101057.72
2022-08-28T00:32:13.779Z,101055.00
2022-08-28T00:34:40.642Z,101031.09
2022-08-28T00:37:07.253Z,101052.59
2022-08-28T00:39:34.106Z,101043.28
2022-08-28T00:42:00.848Z,101018.06
2022-08-28T00:44:28.993Z,101050.59
2022-08-28T00:46:57.674Z,101052.41
2022-08-28T00:49:28.473Z,101045.88
2022-08-28T00:52:09.044Z,101041.41
2022-08-28T00:54:59.595Z,101048.69
2022-08-28T00:57:48.454Z,101055.84
2022-08-28T01:00:20.337Z,101052.69
2022-08-28T01:02:46.964Z,101060.31
2022-08-28T01:05:15.303Z,101062.16
2022-08-28T01:07:42.102Z,101058.16
2022-08-28T01:10:14.529Z,101066.59
2022-08-28T01:12:41.236Z,101054.63
2022-08-28T01:15:13.960Z,101057.41
2022-08-28T01:17:43.343Z,100948.66
2022-08-28T01:20:14.294Z,101069.66
2022-08-28T01:22:43.413Z,101068.38
2022-08-28T01:25:14.549Z,101063.44
2022-08-28T01:27:42.053Z,101060.88
2022-08-28T01:30:12.085Z,101065.25
2022-08-28T01:32:42.364Z,101065.47
2022-08-28T01:35:14.014Z,101065.47
2022-08-28T01:37:41.294Z,100997.38
2022-08-28T01:40:09.961Z,101067.06
2022-08-28T01:42:41.553Z,101032.09
2022-08-28T01:45:11.086Z,101073.38
2022-08-28T01:47:38.878Z,101076.53
2022-08-28T01:50:07.222Z,101076.19
2022-08-28T01:52:34.033Z,101085.25
2022-08-28T01:55:00.587Z,101053.34
2022-08-28T01:57:32.200Z,101083.38
2022-08-28T01:59:59.954Z,101088.56
2022-08-28T02:02:26.585Z,101079.66
2022-08-28T02:04:53.862Z,101097.44
2022-08-28T02:07:20.378Z,101072.16
2022-08-28T02:09:46.889Z,101092.50
2022-08-28T02:12:13.635Z,101099.50
2022-08-28T02:14:40.225Z,101051.38
2022-08-28T02:17:06.805Z,101048.69
2022-08-28T02:19:33.317Z,101091.75
2022-08-28T02:21:59.909Z,101094.84
2022-08-28T02:24:26.489Z,101097.06
2022-08-28T02:26:56.285Z,101097.06
2022-08-28T02:29:23.522Z,101098.91
2022-08-28T02:31:50.019Z,101102.28
2022-08-28T02:34:16.545Z,101076.09
2022-08-28T02:36:43.245Z,101099.78
2022-08-28T02:39:10.971Z,101099.69
2022-08-28T02:41:37.540Z,101087.56
2022-08-28T02:44:04.550Z,101098.09
2022-08-28T02:46:31.180Z,101104.16
2022-08-28T02:48:58.189Z,101105.94
2022-08-28T02:51:24.900Z,101108.25
2022-08-28T02:53:52.257Z,101113.53
2022-08-28T02:56:18.949Z,101113.13
2022-08-28T02:58:45.763Z,101119.56
2022-08-28T03:01:13.437Z,101096.41
2022-08-28T03:03:41.557Z,101121.56
2022-08-28T03:06:09.564Z,101126.59
2022-08-28T03:08:36.161Z,101087.91
2022-08-28T03:11:02.870Z,101091.72
2022-08-28T03:13:30.197Z,101132.16
2022-08-28T03:15:57.537Z,101126.41
2022-08-28T03:18:26.293Z,101133.06
2022-08-28T03:20:53.746Z,101113.91
2022-08-28T03:23:26.519Z,101135.47
2022-08-28T03:26:06.288Z,101129.41
2022-08-28T03:28:39.300Z,101113.56
2022-08-28T03:31:07.399Z,101091.84
2022-08-28T03:33:34.351Z,101103.81
2022-08-28T03:36:01.476Z,101128.78
2022-08-28T03:38:31.393Z,101100.19
2022-08-28T03:40:58.102Z,101100.25
2022-08-28T03:43:25.076Z,101129.97
2022-08-28T03:45:55.138Z,101128.28
2022-08-28T03:48:24.152Z,101115.00
2022-08-28T03:50:53.286Z,101130.06
2022-08-28T03:53:21.869Z,101123.44
2022-08-28T03:55:50.214Z,101124.34
2022-08-28T03:58:18.981Z,101103.84
2022-08-28T04:00:46.540Z,101109.00
2022-08-28T04:03:13.593Z,101138.66
2022-08-28T04:05:41.645Z,101133.50
2022-08-28T04:08:08.950Z,101107.97
2022-08-28T04:10:36.662Z,101128.06
2022-08-28T04:13:03.439Z,101128.72
2022-08-28T04:15:30.275Z,101140.22
2022-08-28T04:17:56.815Z,101133.78
2022-08-28T04:20:24.077Z,101128.06
2022-08-28T04:22:55.055Z,101128.38
2022-08-28T04:25:22.621Z,101124.34
2022-08-28T04:27:50.425Z,101122.53
2022-08-28T04:30:17.644Z,101135.50
2022-08-28T04:32:44.523Z,101142.09
2022-08-28T04:35:12.842Z,101140.22
2022-08-28T04:37:39.845Z,101144.78
2022-08-28T04:40:11.406Z,101139.59
2022-08-28T04:42:38.785Z,101146.75
2022-08-28T04:45:06.554Z,101155.16
2022-08-28T04:47:37.944Z,101124.16
2022-08-28T04:50:05.622Z,101121.38
2022-08-28T04:52:32.379Z,101150.97
2022-08-28T04:55:01.579Z,101109.59
2022-08-28T04:57:28.089Z,101148.44
2022-08-28T04:59:54.643Z,101152.84
2022-08-28T05:02:21.337Z,101151.38
2022-08-28T05:04:48.311Z,101158.44
2022-08-28T05:07:14.827Z,101156.53
2022-08-28T05:09:41.341Z,101154.56
2022-08-28T05:12:08.032Z,101161.84
2022-08-28T05:14:35.461Z,101160.00
2022-08-28T05:17:01.981Z,101134.50
2022-08-28T05:19:28.643Z,101144.75
2022-08-28T05:21:55.435Z,101160.16
2022-08-28T05:24:22.484Z,101158.56
2022-08-28T05:26:49.341Z,101168.47
2022-08-28T05:29:16.852Z,101168.66
2022-08-28T05:31:43.699Z,101142.59
2022-08-28T05:34:10.846Z,101177.91
2022-08-28T05:36:39.039Z,101171.63
2022-08-28T05:39:08.433Z,101180.19
2022-08-28T05:41:35.139Z,101150.66
2022-08-28T05:44:05.896Z,101183.59
2022-08-28T05:46:33.007Z,101167.63
2022-08-28T05:49:00.424Z,101179.22
2022-08-28T05:51:27.991Z,101172.34
2022-08-28T05:53:57.492Z,101173.00
2022-08-28T05:56:29.769Z,101163.47
2022-08-28T05:59:00.784Z,101193.41
2022-08-28T06:01:29.823Z,101183.47
2022-08-28T06:04:17.978Z,101189.63
2022-08-28T06:06:46.146Z,101193.91
2022-08-28T06:09:15.911Z,101197.25
2022-08-28T06:11:46.171Z,101197.84
2022-08-28T06:14:16.570Z,101197.75
2022-08-28T06:16:47.144Z,101198.22
2022-08-28T06:19:14.271Z,101202.00
2022-08-28T06:21:41.613Z,101195.28
2022-08-28T06:24:09.788Z,101205.09
2022-08-28T06:26:36.442Z,101201.44
2022-08-28T06:29:05.545Z,101203.06
2022-08-28T06:31:33.769Z,101204.34
2022-08-28T06:34:01.517Z,101203.97
2022-08-28T06:36:30.743Z,101210.97
2022-08-28T06:39:00.702Z,101210.97
2022-08-28T06:41:28.914Z,101212.75
2022-08-28T06:43:56.217Z,101217.00
2022-08-28T06:46:23.271Z,101223.84
2022-08-28T06:48:49.868Z,101220.47
2022-08-28T06:51:17.414Z,101215.44
2022-08-28T06:53:48.368Z,101222.38
2022-08-28T06:56:26.490Z,101218.38
2022-08-28T06:58:55.653Z,101217.66
2022-08-28T07:01:33.300Z,101210.81
2022-08-28T07:04:03.947Z,101224.63
2022-08-28T07:06:36.446Z,101221.28
2022-08-28T07:09:05.496Z,101219.53
2022-08-28T07:11:33.881Z,101202.75
2022-08-28T07:14:01.017Z,101221.19
2022-08-28T07:16:30.595Z,101221.09
2022-08-28T07:18:58.332Z,101228.00
2022-08-28T07:21:25.726Z,101231.09
2022-08-28T07:23:52.645Z,101220.94
2022-08-28T07:26:22.738Z,101213.78
2022-08-28T07:28:50.183Z,101234.31
2022-08-28T07:31:23.569Z,101228.75
2022-08-28T07:33:50.859Z,101240.88
2022-08-28T07:36:29.829Z,101196.94
2022-08-28T07:38:58.358Z,101231.09
2022-08-28T07:41:27.749Z,101240.41
2022-08-28T07:44:13.405Z,101225.94
2022-08-28T07:46:40.770Z,101230.06
2022-08-28T07:49:08.549Z,101211.66
2022-08-28T07:51:35.579Z,101229.41
2022-08-28T07:54:03.990Z,101239.72
2022-08-28T07:56:31.045Z,101235.91
2022-08-28T07:58:59.287Z,101240.34
2022-08-28T08:01:27.424Z,101216.44
2022-08-28T08:04:01.965Z,101232.22
2022-08-28T08:06:34.184Z,101239.75
2022-08-28T08:09:02.059Z,101231.66
2022-08-28T08:11:32.150Z,101232.69
2022-08-28T08:14:04.784Z,101243.91
2022-08-28T08:16:38.681Z,101216.50
2022-08-28T08:19:05.551Z,101245.69
2022-08-28T08:21:32.654Z,101254.47
2022-08-28T08:23:59.574Z,101254.88
2022-08-28T08:26:28.210Z,101257.34
2022-08-28T08:28:55.998Z,101236.06
2022-08-28T08:31:26.668Z,101259.81
2022-08-28T08:33:57.121Z,101249.94
2022-08-28T08:36:25.360Z,101239.06
2022-08-28T08:38:59.724Z,101245.44
2022-08-28T08:41:33.854Z,101263.56
2022-08-28T08:44:07.846Z,101258.38
2022-08-28T08:47:17.609Z,101262.19
2022-08-28T08:49:57.224Z,101256.91
2022-08-28T08:52:26.734Z,101260.22
2022-08-28T08:55:08.635Z,101263.31
2022-08-28T08:57:37.684Z,101263.38
2022-08-28T09:00:10.235Z,101231.47
2022-08-28T09:03:02.180Z,101260.16
2022-08-28T09:05:54.344Z,101254.56
2022-08-28T09:08:37.135Z,101254.22
2022-08-28T09:11:31.918Z,101251.84
2022-08-28T09:14:03.013Z,101252.00
2022-08-28T09:16:41.790Z,101252.38
2022-08-28T09:19:11.635Z,101260.22
2022-08-28T09:21:43.818Z,101253.63
2022-08-28T09:24:19.545Z,101256.56
2022-08-28T09:26:54.490Z,101262.06
2022-08-28T09:29:31.271Z,101259.50
2022-08-28T09:31:58.330Z,101265.69
2022-08-28T09:34:38.644Z,101258.66
2022-08-28T09:37:08.288Z,101255.38
2022-08-28T09:39:37.630Z,101262.28
2022-08-28T09:42:36.579Z,101255.91
2022-08-28T09:45:09.493Z,101245.53
2022-08-28T09:47:46.606Z,101248.97
2022-08-28T09:50:25.899Z,101237.59
2022-08-28T09:52:55.391Z,101235.69
2022-08-28T09:56:23.565Z,101228.91
2022-08-28T09:58:53.511Z,101198.78
2022-08-28T10:01:40.411Z,101220.56
2022-08-28T10:04:31.849Z,101222.03
2022-08-28T10:07:04.184Z,101224.59
2022-08-28T10:09:58.837Z,101218.38
2022-08-28T10:12:53.619Z,101220.34
2022-08-28T10:15:28.362Z,101220.13
2022-08-28T10:18:31.785Z,101229.50
2022-08-28T10:21:03.937Z,101218.78
2022-08-28T10:23:48.785Z,101221.31
2022-08-28T10:26:52.354Z,101216.38
2022-08-28T10:29:53.066Z,101214.91
2022-08-28T10:32:28.655Z,101209.97
2022-08-28T10:35:01.977Z,101190.88
2022-08-28T10:37:44.767Z,101208.63
2022-08-28T10:40:34.684Z,101194.56
2022-08-28T10:43:19.284Z,101200.06
2022-08-28T10:45:46.005Z,101202.88
2022-08-28T10:48:29.271Z,101198.72
2022-08-28T10:51:09.209Z,101204.78
2022-08-28T10:53:40.549Z,101192.78
2022-08-28T10:56:17.584Z,101209.03
2022-08-28T10:58:48.215Z,101195.91
2022-08-28T11:01:39.480Z,101195.06
2022-08-28T11:04:25.102Z,101190.13
2022-08-28T11:07:02.521Z,101195.78
2022-08-28T11:10:15.759Z,101195.22
2022-08-28T11:12:43.334Z,101185.16
2022-08-28T11:15:36.440Z,101203.75
2022-08-28T11:18:16.006Z,101197.88
2022-08-28T11:21:08.869Z,101178.97
2022-08-28T11:23:54.328Z,101197.22
2022-08-28T11:26:30.615Z,101198.25
2022-08-28T11:28:59.893Z,101205.19
2022-08-28T11:31:30.506Z,101198.25
2022-08-28T11:33:59.439Z,101198.31
2022-08-28T11:36:28.151Z,101206.94
2022-08-28T11:38:54.928Z,101191.50
2022-08-28T11:41:38.432Z,101199.69
2022-08-28T11:44:11.196Z,101202.19
2022-08-28T11:46:47.424Z,101181.34
2022-08-28T11:49:29.193Z,101191.97
2022-08-28T11:52:13.413Z,101169.50
2022-08-28T11:54:50.373Z,101169.38
2022-08-28T11:57:19.791Z,101173.97
2022-08-28T12:00:22.580Z,101179.09
2022-08-28T12:03:15.849Z,101186.78
2022-08-28T12:05:48.717Z,101174.69
2022-08-28T12:08:53.054Z,101175.81
2022-08-28T12:11:48.257Z,101170.75
2022-08-28T12:14:30.045Z,101184.63
2022-08-28T12:16:59.596Z,101177.16
2022-08-28T12:19:41.136Z,101177.88
2022-08-28T12:22:24.299Z,101180.28
2022-08-28T12:24:56.865Z,101180.19
2022-08-28T12:27:24.342Z,101192.28
2022-08-28T12:29:55.135Z,101199.50
2022-08-28T12:32:41.484Z,101207.03
2022-08-28T12:35:08.031Z,101205.38
2022-08-28T12:37:51.902Z,101201.22
2022-08-28T12:40:41.502Z,101197.91
2022-08-28T12:43:10.417Z,101196.84
2022-08-28T12:45:40.931Z,101187.63
2022-08-28T12:48:18.362Z,101194.31
2022-08-28T12:50:45.136Z,101196.31
2022-08-28T12:53:16.255Z,101194.50
2022-08-28T12:55:44.753Z,101189.34
2022-08-28T12:58:36.419Z,101195.84
2022-08-28T13:01:07.569Z,101174.94
2022-08-28T13:03:34.562Z,101194.50
2022-08-28T13:06:06.552Z,101194.25
2022-08-28T13:08:34.338Z,101184.09
2022-08-28T13:11:01.437Z,101158.66
2022-08-28T13:13:32.762Z,101188.63
2022-08-28T13:16:09.288Z,101186.19
2022-08-28T13:18:45.426Z,101179.63
2022-08-28T13:21:25.535Z,101188.94
2022-08-28T13:24:21.139Z,101184.31
2022-08-28T13:26:48.907Z,101180.63
2022-08-28T13:29:20.670Z,101177.84
2022-08-28T13:32:00.310Z,101183.16
2022-08-28T13:34:30.793Z,101182.94
2022-08-28T13:37:14.877Z,101179.47
2022-08-28T13:39:47.280Z,101169.28
2022-08-28T13:42:16.436Z,101163.69
2022-08-28T13:44:49.354Z,101174.72
2022-08-28T13:47:16.766Z,101168.75
2022-08-28T13:49:43.555Z,101155.22
2022-08-28T13:52:11.134Z,101128.34
2022-08-28T13:54:41.583Z,101167.66
2022-08-28T13:57:10.707Z,101165.38
2022-08-28T13:59:37.228Z,101166.34
2022-08-28T14:02:24.928Z,101158.97
2022-08-28T14:04:51.595Z,101161.88
2022-08-28T14:07:18.593Z,101121.06
2022-08-28T14:09:45.299Z,101168.28
2022-08-28T14:12:12.109Z,101144.19
2022-08-28T14:14:39.019Z,101104.97
2022-08-28T14:17:06.796Z,101156.56
2022-08-28T14:19:43.438Z,101153.34
2022-08-28T14:22:09.939Z,101151.41
2022-08-28T14:24:37.179Z,101141.78
2022-08-28T14:27:03.873Z,101090.69
2022-08-28T14:29:31.493Z,101149.72
2022-08-28T14:31:59.912Z,101144.72
2022-08-28T14:34:26.581Z,101099.34
2022-08-28T14:36:55.344Z,101145.31
2022-08-28T14:39:26.554Z,101140.84
2022-08-28T14:41:54.702Z,101146.53
2022-08-28T14:44:22.339Z,101150.00
2022-08-28T14:46:51.682Z,101147.03
2022-08-28T14:49:23.164Z,101129.41
2022-08-28T14:51:50.392Z,101154.56
2022-08-28T14:54:19.245Z,101145.19
2022-08-28T14:56:46.960Z,101140.72
2022-08-28T14:59:20.649Z,101104.81
2022-08-28T15:01:52.347Z,101123.28
2022-08-28T15:04:22.802Z,101146.91
2022-08-28T15:06:51.242Z,101144.91
2022-08-28T15:09:18.412Z,101148.44
2022-08-28T15:11:45.016Z,101141.47
2022-08-28T15:14:11.646Z,101132.38
2022-08-28T15:16:41.552Z,101155.75
2022-08-28T15:19:12.198Z,101148.47
2022-08-28T15:21:45.453Z,101148.78
2022-08-28T15:24:13.349Z,101149.59
2022-08-28T15:26:40.207Z,101143.44
2022-08-28T15:29:07.363Z,101097.47
2022-08-28T15:31:40.340Z,101137.97
2022-08-28T15:34:13.264Z,101140.75
2022-08-28T15:36:40.874Z,101141.50
2022-08-28T15:39:27.081Z,101135.78
2022-08-28T15:41:53.865Z,101135.47
2022-08-28T15:44:21.884Z,101140.75
2022-08-28T15:47:07.382Z,101133.84
2022-08-28T15:49:38.911Z,101132.34
2022-08-28T15:52:15.604Z,101099.78
2022-08-28T15:54:42.874Z,101144.09
2022-08-28T15:57:09.507Z,101135.63
2022-08-28T15:59:48.955Z,101136.03
2022-08-28T16:02:21.776Z,101135.44
2022-08-28T16:04:48.540Z,101133.63
2022-08-28T16:07:15.501Z,101145.03
2022-08-28T16:09:42.061Z,101141.28
2022-08-28T16:12:08.920Z,101153.38
2022-08-28T16:14:36.235Z,101108.28
2022-08-28T16:17:05.694Z,101141.72
2022-08-28T16:19:38.365Z,101147.31
2022-08-28T16:22:05.139Z,101119.97
2022-08-28T16:24:31.701Z,101143.19
2022-08-28T16:26:58.318Z,101145.03
2022-08-28T16:29:25.182Z,101111.25
2022-08-28T16:31:51.790Z,101143.22
2022-08-28T16:34:19.485Z,101138.41
2022-08-28T16:36:48.195Z,101139.13
2022-08-28T16:39:14.860Z,101150.66
2022-08-28T16:41:42.163Z,101138.66
2022-08-28T16:44:09.004Z,101127.16
2022-08-28T16:46:35.601Z,101143.06
2022-08-28T16:49:02.516Z,101150.22
2022-08-28T16:51:29.704Z,101146.47
2022-08-28T16:53:56.597Z,101144.59
2022-08-28T16:56:26.696Z,101136.00
2022-08-28T16:58:53.773Z,101142.28
2022-08-28T17:01:24.136Z,101142.50
2022-08-28T17:03:52.393Z,101116.34
2022-08-28T17:06:28.785Z,101096.69
2022-08-28T17:08:57.318Z,101147.69
2022-08-28T17:11:26.250Z,101148.13
2022-08-28T17:13:53.141Z,101136.84
2022-08-28T17:16:20.426Z,101147.28
2022-08-28T17:18:50.972Z,101146.88
2022-08-28T17:21:37.878Z,101153.56
2022-08-28T17:24:04.927Z,101148.75
2022-08-28T17:26:31.439Z,101148.47
2022-08-28T17:28:58.235Z,101153.47
2022-08-28T17:31:24.795Z,101158.25
2022-08-28T17:33:51.558Z,101135.25
2022-08-28T17:36:28.937Z,101157.81
2022-08-28T17:39:06.784Z,101129.44
2022-08-28T17:41:34.017Z,101141.22
2022-08-28T17:44:01.900Z,101159.38
2022-08-28T17:46:30.197Z,101163.44
2022-08-28T17:48:59.924Z,101105.50
2022-08-28T17:51:42.050Z,101161.81
2022-08-28T17:54:12.908Z,101162.38
2022-08-28T17:56:40.108Z,101169.31
2022-08-28T17:59:06.712Z,101159.47
2022-08-28T18:01:34.157Z,101169.03
2022-08-28T18:04:01.214Z,101179.13
2022-08-28T18:06:28.264Z,101142.59
2022-08-28T18:08:54.803Z,101172.97
2022-08-28T18:11:21.364Z,101174.91
2022-08-28T18:13:47.986Z,101161.00
2022-08-28T18:16:14.862Z,101183.81
2022-08-28T18:18:42.173Z,101193.66
2022-08-28T18:21:12.907Z,101190.38
2022-08-28T18:23:40.075Z,101179.19
2022-08-28T18:26:07.709Z,101205.66
2022-08-28T18:28:36.641Z,101204.63
2022-08-28T18:31:06.045Z,101207.06
2022-08-28T18:33:33.094Z,101211.97
2022-08-28T18:35:59.966Z,101209.44
2022-08-28T18:38:34.830Z,101214.88
2022-08-28T18:41:03.086Z,101223.19
2022-08-28T18:43:29.684Z,101224.22
2022-08-28T18:45:56.212Z,101216.38
2022-08-28T18:48:22.883Z,101230.06
2022-08-28T18:50:49.932Z,101222.00
2022-08-28T18:53:18.011Z,101219.91
2022-08-28T18:55:45.810Z,101223.47
2022-08-28T18:58:15.481Z,101222.63
2022-08-28T19:00:42.353Z,101231.28
2022-08-28T19:03:09.496Z,101193.78
2022-08-28T19:05:37.265Z,101233.66
2022-08-28T19:08:03.965Z,101240.88
2022-08-28T19:10:34.966Z,101243.03
2022-08-28T19:13:03.038Z,101251.28
2022-08-28T19:15:30.212Z,101253.69
2022-08-28T19:17:58.114Z,101225.78
2022-08-28T19:20:26.453Z,101248.97
2022-08-28T19:22:52.939Z,101238.50
2022-08-28T19:25:28.374Z,101256.25
2022-08-28T19:27:59.355Z,101234.78
2022-08-28T19:30:27.664Z,101262.13
2022-08-28T19:32:54.497Z,101254.00
2022-08-28T19:35:24.303Z,101269.13
2022-08-28T19:37:52.223Z,101248.28
2022-08-28T19:40:20.612Z,101275.34
2022-08-28T19:42:47.966Z,101289.00
2022-08-28T19:45:15.380Z,101269.78
2022-08-28T19:47:42.116Z,101298.22
2022-08-28T19:50:12.608Z,101292.00
2022-08-28T19:52:39.206Z,101298.94
2022-08-28T19:55:06.774Z,101288.63
2022-08-28T19:57:34.401Z,101308.91
2022-08-28T20:00:02.094Z,101304.94
2022-08-28T20:02:29.278Z,101288.28
2022-08-28T20:04:55.960Z,101293.41
2022-08-28T20:07:24.353Z,101297.66
2022-08-28T20:09:51.816Z,101307.88
2022-08-28T20:12:18.663Z,101305.91
2022-08-28T20:14:45.624Z,101299.78
2022-08-28T20:17:12.438Z,101302.69
2022-08-28T20:19:39.116Z,101307.75
2022-08-28T20:22:05.902Z,101315.03
2022-08-28T20:24:32.655Z,101309.19
2022-08-28T20:26:59.190Z,101300.19
2022-08-28T20:29:25.740Z,101310.59
2022-08-28T20:31:52.907Z,101322.91
2022-08-28T20:34:19.965Z,101326.88
2022-08-28T20:36:47.279Z,101323.09
2022-08-28T20:39:14.780Z,101331.22
2022-08-28T20:41:41.759Z,101325.59
2022-08-28T20:44:09.908Z,101335.97
2022-08-28T20:46:41.333Z,101336.13
2022-08-28T20:49:13.062Z,101343.41
2022-08-28T20:51:53.038Z,101341.16
2022-08-28T20:54:38.840Z,101344.91
2022-08-28T20:57:07.788Z,101347.22
2022-08-28T20:59:39.950Z,101346.69
2022-08-28T21:02:13.391Z,101343.44
2022-08-28T21:04:41.901Z,101310.41
2022-08-28T21:07:09.216Z,101332.56
2022-08-28T21:10:04.560Z,101358.50
2022-08-28T21:12:23.869Z,101363.81
2022-08-28T21:14:52.764Z,101359.97
2022-08-28T21:17:29.170Z,101347.50
2022-08-28T21:20:03.095Z,101368.06
2022-08-28T21:22:31.597Z,101363.84
2022-08-28T21:24:58.299Z,101370.59
2022-08-28T21:27:24.908Z,101356.41
2022-08-28T21:29:51.491Z,101375.31
2022-08-28T21:32:18.043Z,101334.84
2022-08-28T21:34:44.804Z,101331.84
2022-08-28T21:37:11.343Z,101328.44
2022-08-28T21:39:37.850Z,101365.84
2022-08-28T21:42:04.426Z,101370.91
2022-08-28T21:44:31.084Z,101345.97
2022-08-28T21:46:59.034Z,101362.63
2022-08-28T21:49:25.987Z,101379.25
2022-08-28T21:51:52.978Z,101376.38
2022-08-28T21:54:19.687Z,101376.91
2022-08-28T21:56:46.426Z,101391.28
2022-08-28T21:59:15.379Z,101391.75
2022-08-28T22:01:42.067Z,101397.19
2022-08-28T22:04:09.267Z,101392.66
2022-08-28T22:06:35.961Z,101397.91
2022-08-28T22:09:05.041Z,101393.69
2022-08-28T22:11:31.669Z,101383.06
2022-08-28T22:13:58.551Z,101392.59
2022-08-28T22:16:26.270Z,101396.88
2022-08-28T22:18:53.334Z,101388.94
2022-08-28T22:21:41.627Z,101393.88
2022-08-28T22:24:08.873Z,101393.81
2022-08-28T22:26:35.863Z,101393.59
2022-08-28T22:29:02.481Z,101394.13
2022-08-28T22:31:29.501Z,101364.59
2022-08-28T22:33:56.089Z,101398.47
2022-08-28T22:36:22.621Z,101377.03
2022-08-28T22:38:53.126Z,101397.75
2022-08-28T22:41:20.599Z,101364.06
2022-08-28T22:43:50.742Z,101409.09
2022-08-28T22:46:18.826Z,101397.47
2022-08-28T22:48:46.010Z,101396.47
2022-08-28T22:51:15.382Z,101358.88
2022-08-28T22:53:43.713Z,101397.81
2022-08-28T22:56:11.473Z,101396.84
2022-08-28T22:58:38.611Z,101395.38
2022-08-28T23:01:09.220Z,101367.19
2022-08-28T23:03:35.982Z,101394.53
2022-08-28T23:06:02.971Z,101390.66
2022-08-28T23:08:33.726Z,101391.75
2022-08-28T23:11:01.129Z,101382.34
2022-08-28T23:13:28.597Z,101384.38
2022-08-28T23:15:55.141Z,101386.22
2022-08-28T23:18:22.262Z,101384.56
2022-08-28T23:20:50.641Z,101386.41
2022-08-28T23:23:18.703Z,101383.25
2022-08-28T23:25:45.319Z,101319.72
2022-08-28T23:28:11.849Z,101369.19
2022-08-28T23:30:39.042Z,101359.72
2022-08-28T23:33:08.295Z,101359.16
2022-08-28T23:35:35.704Z,101379.66
2022-08-28T23:38:04.323Z,101375.44
2022-08-28T23:40:33.128Z,101385.25
2022-08-28T23:43:02.836Z,101375.06
2022-08-28T23:45:29.524Z,101374.09
2022-08-28T23:47:56.820Z,101364.50
2022-08-28T23:50:23.464Z,101370.75
2022-08-28T23:52:50.373Z,101371.16
2022-08-28T23:55:18.633Z,101365.75
2022-08-28T23:57:52.455Z,101349.81
